Time;durP1;ratioP1;P1;durP2;ratioP2;P2;SDS_P1;SDS_P2;PMS_P1;PMS_P2;Temp;Humidity;BMP_temperature;BMP_pressure;BME280_temperature;BME280_humidity;BME280_pressure;Samples;Min_cycle;Max_cycle;Signal;HPM_P1;HPM_P2
2021/09/24 00:00:46;;;;;;;8.25;3.47;;;;;;;;;;4897083;29;20021;-77
2021/09/24 00:03:12;;;;;;;6.07;3.40;;;;;;;;;;4897152;29;20036;-77
2021/09/24 00:05:38;;;;;;;8.65;3.55;;;;;;;;;;4898217;29;20020;-77
2021/09/24 00:08:05;;;;;;;6.78;3.20;;;;;;;;;;4899636;29;20036;-77
2021/09/24 00:10:31;;;;;;;5.97;3.30;;;;;;;;;;4900904;29;20028;-79
2021/09/24 00:12:57;;;;;;;5.97;3.13;;;;;;;;;;4902084;29;20055;-78
2021/09/24 00:15:24;;;;;;;7.80;3.88;;;;;;;;;;4905175;29;20059;-78
2021/09/24 00:17:50;;;;;;;6.53;3.33;;;;;;;;;;4921336;29;20093;-78
2021/09/24 00:20:17;;;;;;;7.95;3.80;;;;;;;;;;4920948;29;20028;-79
2021/09/24 00:22:43;;;;;;;6.40;3.50;;;;;;;;;;4920771;29;20433;-78
2021/09/24 00:25:10;;;;;;;6.00;3.42;;;;;;;;;;4921270;29;20469;-78
2021/09/24 00:27:36;;;;;;;9.10;3.65;;;;;;;;;;4920594;29;20036;-77
2021/09/24 00:30:03;;;;;;;7.18;3.67;;;;;;;;;;4920964;29;20080;-79
2021/09/24 00:32:29;;;;;;;9.85;3.63;;;;;;;;;;4920627;29;20092;-76
2021/09/24 00:34:56;;;;;;;7.28;3.83;;;;;;;;;;4921101;29;20462;-79
2021/09/24 00:37:22;;;;;;;5.85;3.30;;;;;;;;;;4921033;29;20496;-78
2021/09/24 00:39:48;;;;;;;7.28;3.63;;;;;;;;;;4920507;29;20067;-78
2021/09/24 00:42:15;;;;;;;7.60;3.38;;;;;;;;;;4903443;29;20036;-78
2021/09/24 00:44:43;;;;;;;7.00;3.28;;;;;;;;;;4920483;29;20032;-79
2021/09/24 00:47:10;;;;;;;6.13;3.38;;;;;;;;;;4903451;29;20028;-79
2021/09/24 00:49:38;;;;;;;6.05;3.42;;;;;;;;;;4920466;29;20541;-79
2021/09/24 00:52:05;;;;;;;6.28;3.25;;;;;;;;;;4920333;29;20024;-78
2021/09/24 00:54:31;;;;;;;7.55;3.63;;;;;;;;;;4903386;29;20032;-78
2021/09/24 00:56:58;;;;;;;6.00;3.35;;;;;;;;;;4920723;29;20450;-78
2021/09/24 00:59:25;;;;;;;5.10;3.22;;;;;;;;;;4903272;29;20477;-78
2021/09/24 01:01:51;;;;;;;5.80;3.25;;;;;;;;;;4903192;29;20063;-78
2021/09/24 01:04:17;;;;;;;5.15;3.10;;;;;;;;;;4903176;29;20123;-76
2021/09/24 01:06:44;;;;;;;9.52;3.47;;;;;;;;;;4903196;29;20059;-78
2021/09/24 01:09:10;;;;;;;8.10;3.40;;;;;;;;;;4919988;29;20179;-78
2021/09/24 01:11:36;;;;;;;5.57;3.10;;;;;;;;;;4920057;29;20028;-78
2021/09/24 01:14:03;;;;;;;7.43;2.70;;;;;;;;;;4903049;29;20088;-79
2021/09/24 01:16:30;;;;;;;9.40;2.97;;;;;;;;;;4919749;29;20059;-78
2021/09/24 01:18:56;;;;;;;5.68;3.05;;;;;;;;;;4902252;29;20042;-79
2021/09/24 01:21:22;;;;;;;6.13;2.97;;;;;;;;;;4919844;29;20028;-77
2021/09/24 01:23:49;;;;;;;4.10;2.45;;;;;;;;;;4902823;29;20043;-79
2021/09/24 01:26:15;;;;;;;6.20;2.83;;;;;;;;;;4920268;29;20032;-79
2021/09/24 01:28:45;;;;;;;6.45;3.35;;;;;;;;;;4919642;29;20392;-79
2021/09/24 01:31:12;;;;;;;6.13;3.13;;;;;;;;;;4902688;29;20071;-78
2021/09/24 01:33:48;;;;;;;4.88;2.53;;;;;;;;;;4919616;29;20071;-77
2021/09/24 01:36:14;;;;;;;6.47;3.05;;;;;;;;;;4902609;29;20024;-78
2021/09/24 01:38:41;;;;;;;7.20;3.38;;;;;;;;;;4919513;29;20103;-78
2021/09/24 01:41:07;;;;;;;5.63;3.25;;;;;;;;;;4919434;29;20031;-76
2021/09/24 01:43:34;;;;;;;5.70;2.72;;;;;;;;;;4919892;29;20028;-77
2021/09/24 01:46:01;;;;;;;11.98;2.70;;;;;;;;;;4919508;29;20034;-78
2021/09/24 01:48:27;;;;;;;7.63;3.17;;;;;;;;;;4919859;29;20090;-78
2021/09/24 01:50:54;;;;;;;5.68;3.20;;;;;;;;;;4919299;29;20083;-78
2021/09/24 01:53:20;;;;;;;6.32;3.05;;;;;;;;;;4919417;29;20032;-78
2021/09/24 01:55:47;;;;;;;7.00;3.33;;;;;;;;;;4919254;29;20032;-78
2021/09/24 01:58:13;;;;;;;6.25;2.92;;;;;;;;;;4919219;29;20024;-78
2021/09/24 02:00:39;;;;;;;8.77;3.15;;;;;;;;;;4902172;29;20122;-76
2021/09/24 02:03:06;;;;;;;5.75;3.00;;;;;;;;;;4902190;29;20114;-78
2021/09/24 02:05:32;;;;;;;7.70;3.28;;;;;;;;;;4919107;29;20113;-76
2021/09/24 02:07:58;;;;;;;8.27;3.40;;;;;;;;;;4901923;29;20051;-78
2021/09/24 02:10:25;;;;;;;5.55;3.20;;;;;;;;;;4919208;29;20426;-77
2021/09/24 02:12:51;;;;;;;5.63;2.72;;;;;;;;;;4919381;29;20035;-78
2021/09/24 02:15:18;;;;;;;4.43;2.97;;;;;;;;;;4918647;29;20020;-78
2021/09/24 02:17:44;;;;;;;6.13;3.30;;;;;;;;;;4919367;29;20039;-76
2021/09/24 02:20:11;;;;;;;5.10;3.00;;;;;;;;;;4902040;29;20024;-76
2021/09/24 02:22:37;;;;;;;8.43;3.00;;;;;;;;;;4919478;29;20095;-78
2021/09/24 02:25:04;;;;;;;5.57;3.10;;;;;;;;;;4918684;29;20035;-78
2021/09/24 02:27:31;;;;;;;5.85;2.88;;;;;;;;;;4901681;29;20036;-78
2021/09/24 02:29:57;;;;;;;4.82;2.95;;;;;;;;;;4918205;29;20055;-77
2021/09/24 02:32:23;;;;;;;5.97;2.90;;;;;;;;;;4901088;29;20124;-80
2021/09/24 02:34:50;;;;;;;4.13;2.63;;;;;;;;;;4919118;29;20051;-80
2021/09/24 02:37:16;;;;;;;5.22;3.10;;;;;;;;;;4918491;29;20036;-78
2021/09/24 02:39:42;;;;;;;5.60;3.28;;;;;;;;;;4901539;29;20043;-79
2021/09/24 02:42:09;;;;;;;5.55;3.17;;;;;;;;;;4918425;29;20576;-80
2021/09/24 02:44:35;;;;;;;5.97;3.03;;;;;;;;;;4918457;29;20028;-80
2021/09/24 02:47:01;;;;;;;5.35;3.10;;;;;;;;;;4918717;29;20446;-78
2021/09/24 02:49:28;;;;;;;6.55;3.30;;;;;;;;;;4918735;29;20042;-77
2021/09/24 02:51:54;;;;;;;5.80;3.33;;;;;;;;;;4918291;29;20036;-77
2021/09/24 02:54:21;;;;;;;7.72;3.08;;;;;;;;;;4918194;29;20028;-77
2021/09/24 02:56:47;;;;;;;5.10;2.85;;;;;;;;;;4918212;29;20032;-79
2021/09/24 02:59:13;;;;;;;5.25;2.92;;;;;;;;;;4918044;29;20028;-78
2021/09/24 03:01:40;;;;;;;6.35;2.97;;;;;;;;;;4918059;29;20082;-77
2021/09/24 03:04:06;;;;;;;6.40;3.00;;;;;;;;;;4918563;29;20039;-80
2021/09/24 03:06:32;;;;;;;9.50;3.42;;;;;;;;;;4917981;29;20028;-78
2021/09/24 03:08:59;;;;;;;7.57;3.28;;;;;;;;;;4917837;29;20032;-78
2021/09/24 03:11:25;;;;;;;5.80;3.28;;;;;;;;;;4900876;29;20064;-75
2021/09/24 03:13:51;;;;;;;5.82;3.17;;;;;;;;;;4900975;29;20032;-78
2021/09/24 03:16:20;;;;;;;4.70;2.95;;;;;;;;;;4917606;29;20494;-78
2021/09/24 03:18:46;;;;;;;5.15;3.22;;;;;;;;;;4917765;29;20059;-77
2021/09/24 03:21:13;;;;;;;5.90;3.13;;;;;;;;;;4917688;29;20133;-78
2021/09/24 03:23:39;;;;;;;5.63;3.22;;;;;;;;;;4918606;29;20055;-78
2021/09/24 03:26:05;;;;;;;3.45;2.28;;;;;;;;;;4917579;29;20059;-78
2021/09/24 03:28:32;;;;;;;5.63;3.00;;;;;;;;;;4918045;29;20123;-78
2021/09/24 03:30:58;;;;;;;4.88;2.80;;;;;;;;;;4917639;29;20036;-78
2021/09/24 03:33:25;;;;;;;4.35;2.70;;;;;;;;;;4917515;29;20493;-78
2021/09/24 03:35:51;;;;;;;6.72;2.97;;;;;;;;;;4917979;29;20417;-75
2021/09/24 03:38:17;;;;;;;5.82;3.13;;;;;;;;;;4900488;29;20036;-78
2021/09/24 03:40:43;;;;;;;5.43;3.15;;;;;;;;;;4917722;29;20532;-76
2021/09/24 03:43:09;;;;;;;5.15;3.00;;;;;;;;;;4900120;29;20035;-79
2021/09/24 03:45:36;;;;;;;4.93;3.08;;;;;;;;;;4900378;29;20032;-79
2021/09/24 03:48:03;;;;;;;5.72;2.92;;;;;;;;;;4900276;29;20036;-78
2021/09/24 03:50:29;;;;;;;5.13;3.03;;;;;;;;;;4900288;29;20095;-78
2021/09/24 03:52:55;;;;;;;4.70;2.70;;;;;;;;;;4900343;29;20034;-79
2021/09/24 03:55:22;;;;;;;4.57;3.03;;;;;;;;;;4917217;29;20438;-80
2021/09/24 03:57:48;;;;;;;6.45;3.00;;;;;;;;;;4917310;29;20038;-79
2021/09/24 04:00:14;;;;;;;13.50;3.15;;;;;;;;;;4917219;29;20032;-77
2021/09/24 04:02:41;;;;;;;5.88;2.92;;;;;;;;;;4900225;29;20028;-78
2021/09/24 04:05:08;;;;;;;5.85;2.70;;;;;;;;;;4917804;29;20032;-78
2021/09/24 04:07:34;;;;;;;4.20;2.55;;;;;;;;;;4917129;29;20032;-79
2021/09/24 04:10:00;;;;;;;7.70;2.90;;;;;;;;;;4917237;29;20091;-79
2021/09/24 04:12:27;;;;;;;4.63;2.85;;;;;;;;;;4917201;29;20024;-79
2021/09/24 04:14:53;;;;;;;6.40;2.85;;;;;;;;;;4917651;29;20033;-79
2021/09/24 04:17:20;;;;;;;5.10;3.17;;;;;;;;;;4916925;29;20048;-79
2021/09/24 04:19:46;;;;;;;5.47;2.75;;;;;;;;;;4917032;29;20099;-79
2021/09/24 04:22:12;;;;;;;10.38;3.13;;;;;;;;;;4917052;29;20028;-78
2021/09/24 04:24:38;;;;;;;6.22;2.67;;;;;;;;;;4917006;29;20032;-78
2021/09/24 04:27:05;;;;;;;5.38;2.90;;;;;;;;;;4899949;29;20047;-78
2021/09/24 04:29:31;;;;;;;6.25;3.35;;;;;;;;;;4900005;29;20075;-79
2021/09/24 04:31:58;;;;;;;6.82;3.22;;;;;;;;;;4916927;29;20469;-79
2021/09/24 04:34:24;;;;;;;7.03;3.13;;;;;;;;;;4916923;29;20106;-78
2021/09/24 04:36:50;;;;;;;5.38;3.13;;;;;;;;;;4899930;29;20028;-78
2021/09/24 04:39:16;;;;;;;6.82;3.40;;;;;;;;;;4899910;29;20024;-79
2021/09/24 04:41:42;;;;;;;7.15;3.20;;;;;;;;;;4916870;29;20036;-78
2021/09/24 04:44:09;;;;;;;6.68;3.13;;;;;;;;;;4899848;29;20028;-79
2021/09/24 04:46:35;;;;;;;5.22;3.08;;;;;;;;;;4916845;29;20397;-78
2021/09/24 04:49:02;;;;;;;8.68;3.22;;;;;;;;;;4916813;29;20087;-79
2021/09/24 04:51:28;;;;;;;6.25;2.92;;;;;;;;;;4916746;29;20038;-79
2021/09/24 04:53:55;;;;;;;5.43;3.10;;;;;;;;;;4917407;29;20119;-79
2021/09/24 04:56:22;;;;;;;5.20;2.95;;;;;;;;;;4920752;29;20381;-79
2021/09/24 04:58:48;;;;;;;5.75;3.20;;;;;;;;;;4920793;29;20024;-79
2021/09/24 05:01:14;;;;;;;5.30;3.22;;;;;;;;;;4920754;29;20032;-77
2021/09/24 05:03:41;;;;;;;6.40;3.47;;;;;;;;;;4903156;29;20028;-79
2021/09/24 05:06:07;;;;;;;8.05;3.53;;;;;;;;;;4920036;29;20055;-79
2021/09/24 05:08:33;;;;;;;7.03;3.42;;;;;;;;;;4920488;29;20040;-78
2021/09/24 05:10:59;;;;;;;5.40;3.20;;;;;;;;;;4903022;29;20565;-77
2021/09/24 05:13:25;;;;;;;5.30;3.20;;;;;;;;;;4903025;29;20066;-78
2021/09/24 05:15:51;;;;;;;8.02;3.33;;;;;;;;;;4892947;29;20032;-80
2021/09/24 05:18:17;;;;;;;5.35;3.30;;;;;;;;;;4894939;29;20068;-78
2021/09/24 05:20:43;;;;;;;6.93;3.08;;;;;;;;;;4895552;29;20574;-76
2021/09/24 05:23:10;;;;;;;7.97;3.10;;;;;;;;;;4896534;29;20120;-77
2021/09/24 05:25:36;;;;;;;6.35;3.13;;;;;;;;;;4896414;29;20124;-76
2021/09/24 05:28:02;;;;;;;5.63;3.28;;;;;;;;;;4896318;29;20029;-76
2021/09/24 05:30:28;;;;;;;5.28;3.25;;;;;;;;;;4896328;29;20033;-77
2021/09/24 05:32:55;;;;;;;7.20;3.47;;;;;;;;;;4881950;29;20529;-77
2021/09/24 05:35:22;;;;;;;8.25;3.58;;;;;;;;;;4881981;29;20141;-77
2021/09/24 05:37:48;;;;;;;6.43;3.45;;;;;;;;;;4882449;29;20033;-77
2021/09/24 05:40:14;;;;;;;4.63;2.85;;;;;;;;;;4881762;29;20076;-76
2021/09/24 05:42:41;;;;;;;5.35;3.10;;;;;;;;;;4881830;29;20044;-77
2021/09/24 05:45:11;;;;;;;5.32;3.30;;;;;;;;;;4881795;29;20036;-77
2021/09/24 05:47:38;;;;;;;4.68;3.22;;;;;;;;;;4896136;29;20037;-79
2021/09/24 05:50:11;;;;;;;5.50;3.30;;;;;;;;;;4881650;29;20081;-79
2021/09/24 05:52:37;;;;;;;;;;;;;;;;;;4896576;29;20029;-79
2021/09/24 05:55:03;;;;;;;4.88;3.50;;;;;;;;;;4881617;29;19931;-78
2021/09/24 05:57:30;;;;;;;6.13;3.42;;;;;;;;;;4895882;29;20387;-78
2021/09/24 05:59:56;;;;;;;8.20;3.88;;;;;;;;;;4881526;29;20025;-76
2021/09/24 06:02:22;;;;;;;5.88;3.17;;;;;;;;;;4881936;29;20033;-76
2021/09/24 06:04:48;;;;;;;5.57;3.13;;;;;;;;;;4882188;29;20029;-77
2021/09/24 06:07:14;;;;;;;6.03;3.10;;;;;;;;;;4896034;29;20029;-76
2021/09/24 06:09:41;;;;;;;6.55;3.25;;;;;;;;;;4881293;29;20090;-79
2021/09/24 06:12:10;;;;;;;7.95;3.42;;;;;;;;;;4881297;29;20063;-78
2021/09/24 06:14:36;;;;;;;7.25;3.63;;;;;;;;;;4881404;29;20035;-78
2021/09/24 06:17:03;;;;;;;6.97;3.25;;;;;;;;;;4913138;29;20052;-77
2021/09/24 06:19:29;;;;;;;6.00;3.53;;;;;;;;;;4918746;29;20020;-77
2021/09/24 06:21:55;;;;;;;10.38;3.60;;;;;;;;;;4901701;29;20091;-77
2021/09/24 06:24:21;;;;;;;6.72;3.30;;;;;;;;;;4901772;29;20028;-78
2021/09/24 06:26:48;;;;;;;5.18;3.05;;;;;;;;;;4918698;29;20032;-79
2021/09/24 06:29:14;;;;;;;4.68;3.28;;;;;;;;;;4918759;29;20036;-78
2021/09/24 06:31:40;;;;;;;5.25;3.33;;;;;;;;;;4919076;29;20035;-78
2021/09/24 06:34:06;;;;;;;10.00;3.60;;;;;;;;;;4901460;29;20028;-78
2021/09/24 06:36:32;;;;;;;8.77;3.83;;;;;;;;;;4918506;29;20036;-79
2021/09/24 06:38:58;;;;;;;6.35;3.30;;;;;;;;;;4918480;29;20036;-78
2021/09/24 06:41:25;;;;;;;5.00;3.30;;;;;;;;;;4901554;29;20028;-77
2021/09/24 06:43:51;;;;;;;5.55;3.33;;;;;;;;;;4901473;29;20119;-79
2021/09/24 06:46:17;;;;;;;7.97;3.63;;;;;;;;;;4918341;29;20028;-78
2021/09/24 06:48:44;;;;;;;7.65;3.38;;;;;;;;;;4901332;29;20477;-79
2021/09/24 06:51:10;;;;;;;5.72;3.28;;;;;;;;;;4918824;29;20056;-79
2021/09/24 06:53:36;;;;;;;8.10;3.60;;;;;;;;;;4918250;29;20035;-77
2021/09/24 06:56:03;;;;;;;5.10;3.40;;;;;;;;;;4901276;29;20028;-77
2021/09/24 06:58:30;;;;;;;6.07;3.28;;;;;;;;;;4901062;29;20032;-78
2021/09/24 07:00:56;;;;;;;8.32;4.28;;;;;;;;;;4918068;29;20036;-79
2021/09/24 07:03:22;;;;;;;7.75;4.10;;;;;;;;;;4918493;29;20110;-77
2021/09/24 07:05:48;;;;;;;10.02;3.72;;;;;;;;;;4900884;29;20477;-77
2021/09/24 07:08:14;;;;;;;6.85;4.00;;;;;;;;;;4900861;29;20040;-78
2021/09/24 07:10:41;;;;;;;5.88;3.53;;;;;;;;;;4901016;29;20031;-77
2021/09/24 07:13:07;;;;;;;9.38;4.07;;;;;;;;;;4918527;29;20032;-76
2021/09/24 07:15:33;;;;;;;9.63;4.00;;;;;;;;;;4901188;29;20134;-76
2021/09/24 07:17:59;;;;;;;7.97;3.72;;;;;;;;;;4917863;29;20043;-77
2021/09/24 07:20:26;;;;;;;5.60;3.38;;;;;;;;;;4900817;29;20108;-77
2021/09/24 07:22:52;;;;;;;5.75;3.22;;;;;;;;;;4900785;29;20055;-76
2021/09/24 07:25:19;;;;;;;5.13;3.50;;;;;;;;;;4900709;29;20505;-77
2021/09/24 07:27:45;;;;;;;5.15;3.53;;;;;;;;;;4900654;29;20092;-78
2021/09/24 07:30:13;;;;;;;7.13;3.90;;;;;;;;;;4900610;29;20083;-77
2021/09/24 07:32:41;;;;;;;6.90;3.75;;;;;;;;;;4900605;29;20031;-77
2021/09/24 07:35:08;;;;;;;4.50;3.08;;;;;;;;;;4917980;29;20028;-77
2021/09/24 07:37:35;;;;;;;17.60;4.07;;;;;;;;;;4901240;29;20140;-79
2021/09/24 07:40:01;;;;;;;5.65;3.45;;;;;;;;;;4917479;29;20028;-76
2021/09/24 07:42:27;;;;;;;7.10;3.70;;;;;;;;;;4913858;29;20267;-81
2021/09/24 07:44:53;;;;;;;6.22;3.35;;;;;;;;;;4899086;29;20031;-79
2021/09/24 07:47:19;;;;;;;6.40;3.75;;;;;;;;;;4899200;29;20473;-79
2021/09/24 07:49:47;;;;;;;8.20;3.40;;;;;;;;;;4898026;29;20123;-80
2021/09/24 07:52:13;;;;;;;8.25;3.75;;;;;;;;;;4880894;29;20068;-78
2021/09/24 07:54:40;;;;;;;5.47;3.33;;;;;;;;;;4897411;29;20037;-81
2021/09/24 07:57:06;;;;;;;9.80;3.75;;;;;;;;;;4898029;29;20031;-80
2021/09/24 07:59:32;;;;;;;5.82;3.38;;;;;;;;;;4881307;29;20025;-81
2021/09/24 08:01:58;;;;;;;5.40;3.40;;;;;;;;;;4884651;29;20040;-77
2021/09/24 08:04:24;;;;;;;5.38;3.13;;;;;;;;;;4917305;29;20031;-81
2021/09/24 08:06:50;;;;;;;5.38;3.13;;;;;;;;;;4899862;29;20035;-77
2021/09/24 08:09:16;;;;;;;3.35;2.00;;;;;;;;;;4916802;29;20040;-80
2021/09/24 08:11:42;;;;;;;3.90;1.90;;;;;;;;;;4917156;29;20111;-81
2021/09/24 08:14:09;;;;;;;6.45;2.22;;;;;;;;;;4900188;29;20032;-81
2021/09/24 08:16:35;;;;;;;5.07;2.20;;;;;;;;;;4900018;29;20092;-78
2021/09/24 08:19:01;;;;;;;4.68;2.25;;;;;;;;;;4899650;29;20032;-77
2021/09/24 08:21:29;;;;;;;4.57;2.08;;;;;;;;;;4915717;29;20017;-80
2021/09/24 08:23:55;;;;;;;5.40;2.53;;;;;;;;;;4899569;29;20079;-80
2021/09/24 08:26:22;;;;;;;3.67;2.08;;;;;;;;;;4899640;29;20024;-79
2021/09/24 08:28:48;;;;;;;3.80;2.20;;;;;;;;;;4915858;29;20397;-79
2021/09/24 08:31:14;;;;;;;5.35;2.38;;;;;;;;;;4903156;29;20079;-79
2021/09/24 08:33:41;;;;;;;4.28;2.55;;;;;;;;;;4903196;29;20119;-77
2021/09/24 08:36:08;;;;;;;4.80;2.22;;;;;;;;;;4920111;29;20496;-78
2021/09/24 08:38:34;;;;;;;4.28;2.30;;;;;;;;;;4920028;29;20035;-81
2021/09/24 08:41:00;;;;;;;8.18;2.35;;;;;;;;;;4920060;29;20024;-79
2021/09/24 08:43:27;;;;;;;3.92;2.30;;;;;;;;;;4887412;29;20035;-78
2021/09/24 08:45:53;;;;;;;4.22;2.10;;;;;;;;;;4919917;29;20382;-77
2021/09/24 08:48:20;;;;;;;5.05;2.15;;;;;;;;;;4918134;29;20437;-77
2021/09/24 08:50:46;;;;;;;5.50;2.50;;;;;;;;;;4918410;29;20084;-79
2021/09/24 08:53:13;;;;;;;3.90;1.88;;;;;;;;;;4918345;29;20084;-76
2021/09/24 08:55:40;;;;;;;3.85;1.92;;;;;;;;;;4918791;29;20127;-78
2021/09/24 08:58:06;;;;;;;4.88;1.90;;;;;;;;;;4918790;29;20110;-80
2021/09/24 09:00:34;;;;;;;5.30;2.35;;;;;;;;;;4918602;29;20524;-78
2021/09/24 09:03:14;;;;;;;4.22;2.13;;;;;;;;;;4919935;29;20103;-80
2021/09/24 09:05:42;;;;;;;5.13;2.15;;;;;;;;;;4918645;29;20024;-76
2021/09/24 09:08:13;;;;;;;4.38;2.03;;;;;;;;;;4918526;29;20044;-78
2021/09/24 09:10:40;;;;;;;5.20;2.45;;;;;;;;;;4919866;29;20080;-76
2021/09/24 09:13:10;;;;;;;5.00;2.33;;;;;;;;;;4919907;29;20036;-79
2021/09/24 09:15:37;;;;;;;3.35;2.10;;;;;;;;;;4918313;29;20036;-77
2021/09/24 09:18:03;;;;;;;3.63;1.90;;;;;;;;;;4918619;29;20123;-80
2021/09/24 09:20:30;;;;;;;3.47;1.90;;;;;;;;;;4919834;29;20617;-77
2021/09/24 09:22:59;;;;;;;5.65;1.95;;;;;;;;;;4918366;29;20021;-78
2021/09/24 09:25:33;;;;;;;4.82;2.30;;;;;;;;;;4918150;29;20043;-80
2021/09/24 09:28:07;;;;;;;5.30;2.55;;;;;;;;;;4918324;29;20040;-77
2021/09/24 09:30:34;;;;;;;3.65;2.20;;;;;;;;;;4918329;29;20028;-76
2021/09/24 09:33:10;;;;;;;2.97;1.90;;;;;;;;;;4918297;29;20136;-76
2021/09/24 09:35:41;;;;;;;4.90;1.85;;;;;;;;;;4919399;29;20024;-80
2021/09/24 09:38:16;;;;;;;3.28;1.70;;;;;;;;;;4918159;29;20036;-81
2021/09/24 09:40:43;;;;;;;4.57;2.15;;;;;;;;;;4900314;29;20044;-78
2021/09/24 09:43:09;;;;;;;2.83;1.50;;;;;;;;;;4900699;29;20088;-80
2021/09/24 09:45:37;;;;;;;2.95;1.70;;;;;;;;;;4883530;29;20040;-76
2021/09/24 09:48:03;;;;;;;3.53;2.10;;;;;;;;;;4883471;29;20032;-79
2021/09/24 09:50:29;;;;;;;3.13;1.67;;;;;;;;;;4900376;29;20044;-76
2021/09/24 09:53:07;;;;;;;3.45;1.73;;;;;;;;;;4883509;29;20371;-79
2021/09/24 09:55:35;;;;;;;2.67;1.55;;;;;;;;;;4900271;29;20029;-75
2021/09/24 09:58:03;;;;;;;3.22;1.88;;;;;;;;;;4883359;29;20449;-80
2021/09/24 10:00:30;;;;;;;2.42;1.52;;;;;;;;;;4883311;29;20136;-80
2021/09/24 10:03:10;;;;;;;3.75;1.83;;;;;;;;;;4882751;29;20056;-76
2021/09/24 10:05:38;;;;;;;3.10;1.58;;;;;;;;;;4899796;29;20477;-77
2021/09/24 10:08:20;;;;;;;4.40;1.70;;;;;;;;;;4883134;29;20047;-80
2021/09/24 10:11:05;;;;;;;7.40;1.80;;;;;;;;;;4899867;29;20032;-80
2021/09/24 10:13:33;;;;;;;3.17;1.70;;;;;;;;;;4883071;29;20067;-75
2021/09/24 10:16:00;;;;;;;3.20;1.30;;;;;;;;;;4882890;29;20053;-77
2021/09/24 10:18:26;;;;;;;5.20;1.60;;;;;;;;;;4899917;29;20474;-81
2021/09/24 10:20:52;;;;;;;2.92;1.60;;;;;;;;;;4899733;29;20032;-78
2021/09/24 10:23:18;;;;;;;2.65;1.70;;;;;;;;;;4883053;29;20084;-76
2021/09/24 10:25:47;;;;;;;3.08;1.73;;;;;;;;;;4899711;29;20058;-81
2021/09/24 10:28:13;;;;;;;2.83;1.63;;;;;;;;;;4882866;29;20036;-77
2021/09/24 10:30:40;;;;;;;3.08;1.77;;;;;;;;;;4882888;29;20036;-79
2021/09/24 10:33:11;;;;;;;3.05;1.60;;;;;;;;;;4899625;29;20094;-80
2021/09/24 10:35:43;;;;;;;4.60;1.83;;;;;;;;;;4882741;29;20053;-75
2021/09/24 10:38:10;;;;;;;8.75;1.88;;;;;;;;;;4882803;29;20084;-80
2021/09/24 10:40:36;;;;;;;4.38;1.48;;;;;;;;;;4882724;29;20036;-80
2021/09/24 10:43:13;;;;;;;2.28;1.30;;;;;;;;;;4899451;29;20397;-77
2021/09/24 10:45:41;;;;;;;1.85;1.10;;;;;;;;;;4899324;29;20032;-79
2021/09/24 10:48:21;;;;;;;2.65;1.50;;;;;;;;;;4882543;29;20024;-80
2021/09/24 10:50:47;;;;;;;2.78;1.20;;;;;;;;;;4882428;29;20394;-77
2021/09/24 10:53:18;;;;;;;2.60;1.13;;;;;;;;;;4881807;29;20027;-78
2021/09/24 10:55:47;;;;;;;2.65;1.27;;;;;;;;;;4882461;29;20039;-80
2021/09/24 10:58:16;;;;;;;2.95;1.20;;;;;;;;;;4899156;29;20035;-75
2021/09/24 11:00:49;;;;;;;2.92;1.40;;;;;;;;;;4899070;29;20032;-78
2021/09/24 11:03:19;;;;;;;1.80;1.17;;;;;;;;;;4882264;29;20123;-76
2021/09/24 11:06:03;;;;;;;2.50;1.35;;;;;;;;;;4882097;29;20084;-80
2021/09/24 11:08:29;;;;;;;3.35;1.25;;;;;;;;;;4882061;29;20111;-76
2021/09/24 11:11:03;;;;;;;2.90;1.50;;;;;;;;;;4882086;29;20383;-77
2021/09/24 11:13:30;;;;;;;4.20;1.30;;;;;;;;;;4898866;29;20039;-77
2021/09/24 11:16:03;;;;;;;4.55;1.00;;;;;;;;;;4882318;29;20048;-77
2021/09/24 11:18:47;;;;;;;2.38;1.15;;;;;;;;;;4882172;29;20457;-77
2021/09/24 11:21:13;;;;;;;3.00;1.40;;;;;;;;;;4898893;29;20388;-77
2021/09/24 11:23:39;;;;;;;3.33;1.10;;;;;;;;;;4898595;29;20382;-79
2021/09/24 11:26:16;;;;;;;3.03;1.25;;;;;;;;;;4899014;29;20028;-80
2021/09/24 11:28:44;;;;;;;2.75;1.00;;;;;;;;;;4898541;29;20032;-76
2021/09/24 11:31:10;;;;;;;6.85;1.63;;;;;;;;;;4898862;29;20036;-79
2021/09/24 11:33:40;;;;;;;3.67;1.20;;;;;;;;;;4898603;29;20056;-79
2021/09/24 11:36:06;;;;;;;2.55;1.30;;;;;;;;;;4881697;29;20039;-78
2021/09/24 11:38:33;;;;;;;1.85;1.10;;;;;;;;;;4884562;29;20031;-76
2021/09/24 11:41:00;;;;;;;2.03;1.05;;;;;;;;;;4900359;29;20034;-77
2021/09/24 11:43:26;;;;;;;4.10;1.33;;;;;;;;;;4900199;29;20119;-80
2021/09/24 11:45:52;;;;;;;2.10;1.30;;;;;;;;;;4900364;29;20116;-77
2021/09/24 11:48:39;;;;;;;1.85;1.00;;;;;;;;;;4900196;29;20071;-80
2021/09/24 11:51:20;;;;;;;2.42;1.23;;;;;;;;;;4900195;29;20032;-80
2021/09/24 11:53:47;;;;;;;6.03;1.25;;;;;;;;;;4900293;29;20040;-80
2021/09/24 11:56:17;;;;;;;1.85;1.08;;;;;;;;;;4900785;29;20497;-76
2021/09/24 11:58:43;;;;;;;2.00;1.10;;;;;;;;;;4917148;29;20107;-80
2021/09/24 12:01:12;;;;;;;4.38;1.20;;;;;;;;;;4900212;29;20059;-76
2021/09/24 12:03:38;;;;;;;3.75;1.10;;;;;;;;;;4901547;29;20083;-80
2021/09/24 12:06:06;;;;;;;3.05;1.48;;;;;;;;;;4918376;29;20080;-79
2021/09/24 12:08:34;;;;;;;3.30;1.40;;;;;;;;;;4918983;29;20078;-79
2021/09/24 12:11:05;;;;;;;2.10;1.27;;;;;;;;;;4920460;29;20418;-79
2021/09/24 12:13:47;;;;;;;6.03;1.60;;;;;;;;;;4919773;29;20370;-77
2021/09/24 12:16:16;;;;;;;8.43;1.95;;;;;;;;;;4920975;29;20059;-79
2021/09/24 12:19:06;;;;;;;2.25;1.10;;;;;;;;;;4919540;29;20087;-80
2021/09/24 12:21:42;;;;;;;3.92;1.73;;;;;;;;;;4915896;29;20047;-76
2021/09/24 12:24:13;;;;;;;4.22;1.33;;;;;;;;;;4919622;29;20032;-77
2021/09/24 12:26:40;;;;;;;2.20;1.30;;;;;;;;;;4919479;29;20032;-82
2021/09/24 12:29:08;;;;;;;2.33;1.48;;;;;;;;;;4920655;29;20417;-80
2021/09/24 12:31:39;;;;;;;2.50;1.60;;;;;;;;;;4919283;29;20078;-77
2021/09/24 12:34:06;;;;;;;3.03;1.42;;;;;;;;;;4919296;29;20119;-77
2021/09/24 12:36:32;;;;;;;3.42;1.38;;;;;;;;;;4919260;29;20537;-79
2021/09/24 12:39:12;;;;;;;2.63;1.60;;;;;;;;;;4915976;29;20087;-76
2021/09/24 12:41:39;;;;;;;5.40;1.52;;;;;;;;;;4903426;29;20070;-77
2021/09/24 12:44:05;;;;;;;4.28;1.63;;;;;;;;;;4920438;29;20030;-77
2021/09/24 12:46:42;;;;;;;5.22;1.42;;;;;;;;;;4903342;29;20039;-76
2021/09/24 12:49:08;;;;;;;3.33;1.42;;;;;;;;;;4903373;29;20509;-76
2021/09/24 12:51:35;;;;;;;2.92;1.65;;;;;;;;;;4903126;29;20032;-76
2021/09/24 12:54:01;;;;;;;2.72;1.50;;;;;;;;;;4919996;29;20075;-76
2021/09/24 12:56:27;;;;;;;2.50;1.67;;;;;;;;;;4903208;29;20020;-76
2021/09/24 12:58:57;;;;;;;3.03;1.77;;;;;;;;;;4903215;29;20036;-76
2021/09/24 13:01:24;;;;;;;2.95;1.40;;;;;;;;;;4920155;29;20028;-76
2021/09/24 13:03:53;;;;;;;2.83;1.45;;;;;;;;;;4903105;29;20036;-75
2021/09/24 13:06:19;;;;;;;3.05;1.55;;;;;;;;;;4902987;29;20036;-75
2021/09/24 13:08:51;;;;;;;3.17;1.80;;;;;;;;;;4902884;29;20044;-77
2021/09/24 13:11:21;;;;;;;5.17;1.93;;;;;;;;;;4903193;29;20087;-76
2021/09/24 13:13:48;;;;;;;5.38;1.70;;;;;;;;;;4919736;29;20278;-77
2021/09/24 13:16:15;;;;;;;4.10;1.73;;;;;;;;;;4918872;29;20451;-76
2021/09/24 13:18:41;;;;;;;6.18;2.00;;;;;;;;;;4901785;29;20036;-77
2021/09/24 13:21:07;;;;;;;4.18;1.67;;;;;;;;;;4902678;29;20088;-77
2021/09/24 13:23:34;;;;;;;2.90;1.83;;;;;;;;;;4902988;29;20362;-78
2021/09/24 13:26:01;;;;;;;3.53;1.90;;;;;;;;;;4920322;29;20060;-77
2021/09/24 13:28:28;;;;;;;3.10;1.80;;;;;;;;;;4902707;29;20055;-78
2021/09/24 13:30:54;;;;;;;3.00;1.65;;;;;;;;;;4902350;29;20025;-77
2021/09/24 13:33:21;;;;;;;3.22;1.80;;;;;;;;;;4902739;29;20028;-77
2021/09/24 13:35:48;;;;;;;3.83;1.90;;;;;;;;;;4919603;29;20035;-78
2021/09/24 13:38:14;;;;;;;9.98;1.90;;;;;;;;;;4919779;29;20521;-77
2021/09/24 13:40:40;;;;;;;3.75;2.33;;;;;;;;;;4902646;29;20034;-78
2021/09/24 13:43:08;;;;;;;5.30;1.80;;;;;;;;;;4902841;29;20059;-77
2021/09/24 13:45:35;;;;;;;4.78;2.00;;;;;;;;;;4902608;29;20035;-78
2021/09/24 13:48:01;;;;;;;3.20;2.10;;;;;;;;;;4919259;29;20175;-77
2021/09/24 13:50:29;;;;;;;6.78;1.90;;;;;;;;;;4902503;29;20442;-79
2021/09/24 13:52:56;;;;;;;5.60;1.80;;;;;;;;;;4919486;29;20103;-78
2021/09/24 13:55:23;;;;;;;3.53;2.00;;;;;;;;;;4902232;29;20059;-78
2021/09/24 13:57:50;;;;;;;3.53;1.88;;;;;;;;;;4919276;29;20036;-78
2021/09/24 14:00:16;;;;;;;7.22;2.20;;;;;;;;;;4919465;29;20092;-78
2021/09/24 14:02:44;;;;;;;3.60;1.85;;;;;;;;;;4919161;29;20115;-78
2021/09/24 14:05:11;;;;;;;2.70;1.80;;;;;;;;;;4902389;29;20031;-78
2021/09/24 14:07:38;;;;;;;6.03;2.22;;;;;;;;;;4919406;29;20028;-78
2021/09/24 14:10:06;;;;;;;6.00;2.10;;;;;;;;;;4919639;29;20488;-78
2021/09/24 14:12:33;;;;;;;3.72;1.95;;;;;;;;;;4919519;29;20016;-78
2021/09/24 14:14:59;;;;;;;2.35;1.58;;;;;;;;;;4919504;29;20028;-78
2021/09/24 14:17:26;;;;;;;3.78;2.20;;;;;;;;;;4918790;29;20048;-83
2021/09/24 14:19:52;;;;;;;2.63;1.70;;;;;;;;;;4901925;29;20055;-78
2021/09/24 14:22:19;;;;;;;3.33;2.17;;;;;;;;;;4918815;29;20032;-83
2021/09/24 14:24:45;;;;;;;3.47;2.20;;;;;;;;;;4918713;29;20379;-78
2021/09/24 14:27:11;;;;;;;3.40;1.90;;;;;;;;;;4919334;29;20035;-78
2021/09/24 14:29:38;;;;;;;4.47;1.90;;;;;;;;;;4918762;29;20040;-79
2021/09/24 14:32:05;;;;;;;3.92;2.05;;;;;;;;;;4918749;29;20039;-78
2021/09/24 14:34:31;;;;;;;3.28;2.40;;;;;;;;;;4919148;29;20060;-78
2021/09/24 14:36:58;;;;;;;6.78;2.75;;;;;;;;;;4918612;29;20031;-78
2021/09/24 14:39:24;;;;;;;4.82;1.95;;;;;;;;;;4901758;29;20051;-78
2021/09/24 14:41:51;;;;;;;4.85;2.25;;;;;;;;;;4919022;29;20024;-78
2021/09/24 14:44:17;;;;;;;2.80;1.98;;;;;;;;;;4918424;29;20032;-78